createdAt,value
2018-09-22T00:03:45.680Z,12.83
2018-09-22T00:08:41.904Z,12.90
2018-09-22T00:13:38.062Z,12.80
2018-09-22T00:18:34.548Z,12.78
2018-09-22T00:23:30.287Z,12.76
2018-09-22T00:28:26.912Z,12.82
2018-09-22T00:33:22.740Z,12.79
2018-09-22T00:38:18.470Z,12.79
2018-09-22T00:43:15.259Z,12.72
2018-09-22T00:48:10.679Z,12.72
2018-09-22T00:53:06.500Z,12.83
2018-09-22T00:58:02.475Z,12.68
2018-09-22T01:02:58.713Z,12.75
2018-09-22T01:07:54.669Z,12.61
2018-09-22T01:12:50.445Z,12.55
2018-09-22T01:17:46.400Z,12.57
2018-09-22T01:22:43.554Z,12.45
2018-09-22T01:27:39.848Z,12.49
2018-09-22T01:32:36.103Z,12.46
2018-09-22T01:37:31.784Z,12.39
2018-09-22T01:42:27.879Z,12.42
2018-09-22T01:47:23.611Z,12.46
2018-09-22T01:52:19.563Z,12.37
2018-09-22T01:57:15.395Z,12.27
2018-09-22T02:02:11.340Z,12.31
2018-09-22T02:07:07.054Z,12.17
2018-09-22T02:12:03.790Z,12.37
2018-09-22T02:17:00.077Z,12.28
2018-09-22T02:21:55.976Z,12.17
2018-09-22T02:26:51.891Z,12.25
2018-09-22T02:31:47.694Z,12.24
2018-09-22T02:36:43.199Z,12.24
2018-09-22T02:41:39.846Z,12.24
2018-09-22T02:46:36.481Z,12.24
2018-09-22T02:51:31.939Z,12.10
2018-09-22T02:56:27.790Z,12.25
2018-09-22T03:01:23.488Z,12.24
2018-09-22T03:06:19.204Z,12.13
2018-09-22T03:11:15.098Z,12.13
2018-09-22T03:16:10.761Z,12.09
2018-09-22T03:21:07.260Z,12.12
2018-09-22T03:26:03.299Z,12.09
2018-09-22T03:30:59.044Z,12.12
2018-09-22T03:35:55.205Z,12.10
2018-09-22T03:40:51.956Z,12.07
2018-09-22T03:45:48.413Z,12.04
2018-09-22T03:50:43.946Z,12.21
2018-09-22T03:55:40.041Z,12.12
2018-09-22T04:00:36.901Z,12.00
2018-09-22T04:05:32.354Z,12.02
2018-09-22T04:10:29.118Z,12.00
2018-09-22T04:15:24.930Z,11.94
2018-09-22T04:20:20.580Z,12.03
2018-09-22T04:25:17.809Z,12.13
2018-09-22T04:30:13.656Z,12.09
2018-09-22T04:35:09.509Z,12.07
2018-09-22T04:40:05.302Z,12.12
2018-09-22T04:45:00.896Z,12.21
2018-09-22T04:49:56.954Z,12.25
2018-09-22T04:54:53.730Z,12.21
2018-09-22T04:59:50.462Z,12.21
2018-09-22T05:04:45.682Z,12.25
2018-09-22T05:09:41.425Z,12.29
2018-09-22T05:14:37.406Z,12.21
2018-09-22T05:19:34.058Z,12.22
2018-09-22T05:24:29.668Z,12.24
2018-09-22T05:29:26.547Z,12.31
2018-09-22T05:34:22.715Z,12.29
2018-09-22T05:39:18.836Z,12.32
2018-09-22T05:44:14.697Z,12.40
2018-09-22T05:49:10.752Z,12.29
2018-09-22T05:54:06.576Z,12.39
2018-09-22T05:59:02.980Z,12.45
2018-09-22T06:04:00.469Z,12.43
2018-09-22T06:08:57.717Z,12.37
2018-09-22T06:13:53.270Z,12.47
2018-09-22T06:18:50.528Z,12.57
2018-09-22T06:23:46.253Z,12.55
2018-09-22T06:28:43.961Z,12.60
2018-09-22T06:33:39.395Z,12.65
2018-09-22T06:38:35.386Z,12.70
2018-09-22T06:43:31.183Z,12.76
2018-09-22T06:48:27.471Z,12.85
2018-09-22T06:53:24.269Z,12.95
2018-09-22T06:58:19.853Z,12.97
2018-09-22T07:03:16.802Z,12.98
2018-09-22T07:08:14.064Z,13.20
2018-09-22T07:13:09.783Z,13.22
2018-09-22T07:18:06.785Z,13.27
2018-09-22T07:23:02.381Z,13.38
2018-09-22T07:27:58.254Z,13.56
2018-09-22T07:32:54.589Z,13.65
2018-09-22T07:37:50.567Z,13.77
2018-09-22T07:42:46.517Z,13.86
2018-09-22T07:47:43.597Z,14.00
2018-09-22T07:52:39.220Z,14.05
2018-09-22T07:57:36.091Z,14.33
2018-09-22T08:02:32.183Z,14.35
2018-09-22T08:07:28.412Z,14.43
2018-09-22T08:12:24.616Z,14.66
2018-09-22T08:17:21.831Z,14.69
2018-09-22T08:22:18.476Z,14.84
2018-09-22T08:27:14.936Z,14.82
2018-09-22T08:32:10.956Z,15.11
2018-09-22T08:37:07.005Z,15.03
2018-09-22T08:42:04.312Z,15.03
2018-09-22T08:46:59.593Z,15.10
2018-09-22T08:51:55.298Z,15.18
2018-09-22T08:56:52.171Z,15.09
2018-09-22T09:01:49.116Z,15.21
2018-09-22T09:06:44.993Z,15.24
2018-09-22T09:11:42.196Z,15.54
2018-09-22T09:16:39.056Z,15.52
2018-09-22T09:21:35.058Z,15.49
2018-09-22T09:26:30.959Z,15.64
2018-09-22T09:31:27.225Z,15.70
2018-09-22T09:36:23.143Z,15.73
2018-09-22T09:41:18.793Z,15.75
2018-09-22T09:46:15.107Z,15.88
2018-09-22T09:51:10.929Z,15.80
2018-09-22T09:56:06.889Z,15.80
2018-09-22T10:01:03.815Z,15.84
2018-09-22T10:05:59.780Z,15.92
2018-09-22T10:10:57.204Z,15.97
2018-09-22T10:15:54.594Z,16.39
2018-09-22T10:20:50.991Z,16.58
2018-09-22T10:25:46.772Z,16.54
2018-09-22T10:30:42.504Z,16.69
2018-09-22T10:35:39.567Z,16.81
2018-09-22T10:40:36.124Z,17.06
2018-09-22T10:45:33.096Z,16.84
2018-09-22T10:50:28.755Z,16.78
2018-09-22T10:55:25.401Z,16.75
2018-09-22T11:00:21.105Z,16.72
2018-09-22T11:05:17.132Z,16.97
2018-09-22T11:10:14.383Z,17.12
2018-09-22T11:15:11.536Z,17.12
2018-09-22T11:20:07.688Z,17.30
2018-09-22T11:25:03.422Z,17.29
2018-09-22T11:29:59.325Z,17.23
2018-09-22T11:34:55.105Z,17.15
2018-09-22T11:39:51.882Z,17.16
2018-09-22T11:44:47.625Z,17.20
2018-09-22T11:49:44.625Z,17.27
2018-09-22T11:54:41.224Z,17.09
2018-09-22T11:59:36.738Z,17.38
2018-09-22T12:04:33.184Z,17.45
2018-09-22T12:09:30.651Z,17.45
2018-09-22T12:14:26.425Z,17.42
2018-09-22T12:19:23.398Z,17.44
2018-09-22T12:24:20.598Z,17.38
2018-09-22T12:29:16.490Z,17.51
2018-09-22T12:34:12.139Z,17.20
2018-09-22T12:39:08.753Z,17.15
2018-09-22T12:44:04.169Z,17.08
2018-09-22T12:49:00.042Z,17.09
2018-09-22T12:53:56.668Z,17.04
2018-09-22T12:58:52.394Z,17.14
2018-09-22T13:03:48.775Z,17.23
2018-09-22T13:08:45.123Z,17.29
2018-09-22T13:13:41.144Z,17.34
2018-09-22T13:18:37.841Z,17.26
2018-09-22T13:23:34.098Z,17.11
2018-09-22T13:28:29.765Z,16.93
2018-09-22T13:33:26.834Z,16.79
2018-09-22T13:38:22.297Z,16.99
2018-09-22T13:43:19.218Z,16.86
2018-09-22T13:48:16.298Z,16.84
2018-09-22T13:53:11.882Z,16.99
2018-09-22T13:58:07.765Z,17.09
2018-09-22T14:03:03.536Z,16.96
2018-09-22T14:08:00.490Z,16.93
2018-09-22T14:12:56.201Z,16.87
2018-09-22T14:17:51.990Z,16.87
2018-09-22T14:22:47.942Z,16.90
2018-09-22T14:27:43.617Z,16.99
2018-09-22T14:32:39.583Z,17.01
2018-09-22T14:37:35.417Z,16.86
2018-09-22T14:42:31.565Z,16.81
2018-09-22T14:47:27.296Z,16.81
2018-09-22T14:52:23.895Z,16.61
2018-09-22T14:57:19.345Z,16.64
2018-09-22T15:02:15.036Z,16.51
2018-09-22T15:07:10.715Z,15.68
2018-09-22T15:12:06.532Z,14.81
2018-09-22T15:17:01.818Z,14.23
2018-09-22T15:21:57.712Z,13.86
2018-09-22T15:26:54.980Z,13.62
2018-09-22T15:31:50.340Z,13.49
2018-09-22T15:36:45.928Z,13.54
2018-09-22T15:41:41.820Z,13.50
2018-09-22T15:46:38.872Z,13.31
2018-09-22T15:51:35.292Z,13.28
2018-09-22T15:56:31.041Z,13.20
2018-09-22T16:01:27.961Z,13.18
2018-09-22T16:06:24.173Z,13.09
2018-09-22T16:11:21.037Z,13.09
2018-09-22T16:16:16.438Z,13.04
2018-09-22T16:21:12.798Z,12.93
2018-09-22T16:26:09.613Z,12.80
2018-09-22T16:31:04.914Z,12.75
2018-09-22T16:36:00.752Z,12.75
2018-09-22T16:40:58.027Z,12.70
2018-09-22T16:45:53.686Z,12.87
2018-09-22T16:50:49.435Z,12.79
2018-09-22T16:55:45.238Z,12.87
2018-09-22T17:00:41.132Z,12.79
2018-09-22T17:05:36.720Z,12.80
2018-09-22T17:10:34.330Z,12.78
2018-09-22T17:15:30.335Z,12.83
2018-09-22T17:20:26.680Z,12.76
2018-09-22T17:25:22.310Z,12.70
2018-09-22T17:30:18.109Z,12.72
2018-09-22T17:35:14.286Z,12.76
2018-09-22T17:40:10.212Z,12.58
2018-09-22T17:45:06.040Z,12.49
2018-09-22T17:50:02.017Z,12.53
2018-09-22T17:54:57.432Z,12.54
2018-09-22T17:59:53.330Z,12.47
2018-09-22T18:04:49.332Z,12.47
2018-09-22T18:09:45.480Z,12.39
2018-09-22T18:14:41.209Z,12.42
2018-09-22T18:19:37.987Z,12.40
2018-09-22T18:24:33.272Z,12.53
2018-09-22T18:29:29.641Z,12.45
2018-09-22T18:34:25.411Z,12.42
2018-09-22T18:39:21.053Z,12.43
2018-09-22T18:44:17.385Z,12.42
2018-09-22T18:54:12.939Z,12.35
2018-09-22T18:59:08.638Z,12.32
2018-09-22T19:04:04.526Z,12.42
2018-09-22T19:09:00.353Z,12.45
2018-09-22T19:13:57.879Z,12.35
2018-09-22T19:18:54.331Z,12.31
2018-09-22T19:23:49.881Z,12.28
2018-09-22T19:28:46.354Z,12.24
2018-09-22T19:33:43.158Z,12.18
2018-09-22T19:38:39.369Z,12.20
2018-09-22T19:43:35.220Z,12.28
2018-09-22T19:48:31.103Z,12.28
2018-09-22T19:53:27.151Z,12.20
2018-09-22T19:58:23.618Z,12.17
2018-09-22T20:03:19.467Z,12.20
2018-09-22T20:08:15.467Z,12.20
2018-09-22T20:13:12.141Z,12.21
2018-09-22T20:18:07.684Z,12.28
2018-09-22T20:23:04.511Z,12.18
2018-09-22T20:28:00.088Z,12.24
2018-09-22T20:32:55.625Z,12.18
2018-09-22T20:37:53.078Z,12.22
2018-09-22T20:42:49.413Z,12.25
2018-09-22T20:47:46.613Z,12.15
2018-09-22T20:52:42.145Z,12.20
2018-09-22T20:57:37.985Z,12.09
2018-09-22T21:02:34.781Z,12.12
2018-09-22T21:07:30.390Z,12.18
2018-09-22T21:12:26.139Z,12.09
2018-09-22T21:17:22.623Z,12.04
2018-09-22T21:22:18.085Z,12.04
2018-09-22T21:27:13.819Z,12.17
2018-09-22T21:32:09.744Z,12.24
2018-09-22T21:37:05.605Z,12.13
2018-09-22T21:42:02.532Z,12.07
2018-09-22T21:46:58.984Z,12.15
2018-09-22T21:51:54.424Z,12.06
2018-09-22T21:56:50.017Z,12.02
2018-09-22T22:01:45.656Z,12.03
2018-09-22T22:06:41.413Z,12.03
2018-09-22T22:11:38.024Z,12.07
2018-09-22T22:16:33.584Z,12.07
2018-09-22T22:21:30.653Z,12.07
2018-09-22T22:26:26.954Z,11.94
2018-09-22T22:31:23.485Z,11.91
2018-09-22T22:36:19.575Z,11.97
2018-09-22T22:41:15.296Z,12.07
2018-09-22T22:46:11.368Z,12.09
2018-09-22T22:51:06.933Z,12.13
2018-09-22T22:56:02.788Z,12.04
2018-09-22T23:00:58.813Z,11.88
2018-09-22T23:05:55.284Z,11.91
2018-09-22T23:10:51.130Z,12.04
2018-09-22T23:15:47.375Z,12.13
2018-09-22T23:20:43.371Z,12.10
2018-09-22T23:25:39.669Z,12.10
2018-09-22T23:30:35.971Z,12.10
2018-09-22T23:35:31.845Z,12.07
2018-09-22T23:40:28.596Z,12.13
2018-09-22T23:45:24.291Z,12.13
2018-09-22T23:50:20.245Z,12.09
2018-09-22T23:55:15.952Z,12.13
